Big Rapids, Michigan
Current Conditions -  °F | °C
As of 1:14 PM on Thursday 18 Dec 2014 (Local Time) from KRQB Reporting Station
Overcast Overcast  
Wind Chill: 29°   Ceiling: 1100
Heat Index: 29°   Visibility: 10mi
Dew Point: 27°   Wind: 3mph
Humidity: 92%   Direction: 290°WNW
Pressure: 30.16"   Gusts: NA
Location:  43.7°N, 85.48°W
Report Text: KRQB 181814Z AUTO 29003KT 10SM OVC011 M02/M03 A3016 RMK AO2 T10181030
Loading
Personal Weather Stations






























Interactive Weather Map New forecast layout! Learn more

10-Day Weather Forecast

Advertisements
Track Severe Weather on mobile